createdAt,value
2017-11-23T00:00:07.846Z,8.90
2017-11-23T00:02:35.370Z,8.90
2017-11-23T00:05:03.021Z,8.90
2017-11-23T00:07:30.544Z,8.90
2017-11-23T00:09:58.846Z,9.20
2017-11-23T00:12:26.359Z,9.20
2017-11-23T00:14:53.873Z,9.30
2017-11-23T00:17:21.409Z,9.50
2017-11-23T00:19:48.923Z,9.70
2017-11-23T00:22:16.471Z,9.80
2017-11-23T00:24:43.980Z,9.60
2017-11-23T00:27:12.265Z,9.40
2017-11-23T00:29:39.843Z,9.40
2017-11-23T00:32:07.383Z,9.20
2017-11-23T00:34:34.901Z,9.20
2017-11-23T00:37:02.445Z,9.40
2017-11-23T00:39:29.948Z,9.20
2017-11-23T00:41:58.241Z,9.50
2017-11-23T00:44:26.512Z,9.50
2017-11-23T00:46:54.808Z,9.40
2017-11-23T00:49:22.322Z,9.40
2017-11-23T00:51:49.849Z,9.30
2017-11-23T00:54:17.364Z,9.30
2017-11-23T00:56:45.655Z,9.10
2017-11-23T00:59:13.951Z,9.10
2017-11-23T01:01:41.468Z,9.20
2017-11-23T01:04:09.784Z,9.10
2017-11-23T01:06:37.367Z,9.10
2017-11-23T01:09:04.899Z,9.20
2017-11-23T01:11:32.462Z,9.10
2017-11-23T01:13:59.989Z,8.90
2017-11-23T01:16:27.504Z,8.80
2017-11-23T01:18:55.071Z,9.00
2017-11-23T01:21:22.587Z,9.10
2017-11-23T01:23:50.876Z,9.10
2017-11-23T01:26:18.460Z,9.10
2017-11-23T01:28:45.987Z,9.30
2017-11-23T01:31:14.295Z,9.20
2017-11-23T01:33:41.860Z,9.20
2017-11-23T01:36:09.368Z,9.30
2017-11-23T01:38:37.683Z,9.10
2017-11-23T01:41:05.252Z,9.10
2017-11-23T01:43:32.801Z,9.10
2017-11-23T01:46:00.374Z,9.10
2017-11-23T01:48:27.904Z,9.20
2017-11-23T01:50:56.180Z,9.10
2017-11-23T01:53:24.472Z,9.20
2017-11-23T01:55:51.989Z,9.10
2017-11-23T01:58:19.519Z,9.10
2017-11-23T02:00:47.028Z,9.20
2017-11-23T02:03:15.346Z,9.10
2017-11-23T02:05:42.865Z,9.10
2017-11-23T02:08:11.276Z,9.10
2017-11-23T02:10:38.788Z,9.00
2017-11-23T02:13:06.296Z,9.00
2017-11-23T02:15:33.821Z,8.80
2017-11-23T02:18:01.328Z,8.80
2017-11-23T02:20:28.880Z,8.80
2017-11-23T02:22:56.397Z,8.90
2017-11-23T02:25:23.924Z,8.90
2017-11-23T02:27:51.445Z,9.10
2017-11-23T02:30:19.750Z,8.70
2017-11-23T02:32:47.262Z,8.70
2017-11-23T02:35:15.562Z,8.80
2017-11-23T02:37:43.870Z,8.90
2017-11-23T02:40:11.392Z,8.90
2017-11-23T02:42:39.664Z,9.10
2017-11-23T02:45:07.263Z,9.10
2017-11-23T02:47:34.816Z,9.10
2017-11-23T02:50:02.354Z,9.00
2017-11-23T02:52:29.867Z,9.10
2017-11-23T02:54:57.425Z,9.10
2017-11-23T02:57:24.923Z,9.10
2017-11-23T02:59:53.206Z,8.90
2017-11-23T03:02:21.508Z,9.10
2017-11-23T03:04:49.017Z,9.00
2017-11-23T03:07:17.311Z,8.80
2017-11-23T03:09:45.630Z,8.90
2017-11-23T03:12:13.188Z,8.80
2017-11-23T03:14:40.702Z,8.90
2017-11-23T03:17:08.305Z,9.10
2017-11-23T03:19:35.820Z,9.00
2017-11-23T03:22:03.347Z,9.00
2017-11-23T03:24:30.884Z,9.00
2017-11-23T03:26:58.412Z,8.80
2017-11-23T03:29:26.684Z,8.90
2017-11-23T03:31:54.207Z,8.90
2017-11-23T03:34:21.714Z,8.90
2017-11-23T03:36:50.031Z,9.00
2017-11-23T03:39:17.558Z,8.90
2017-11-23T03:41:45.870Z,8.90
2017-11-23T03:44:13.438Z,8.90
2017-11-23T03:46:41.092Z,9.00
2017-11-23T03:49:08.606Z,8.70
2017-11-23T03:51:36.213Z,8.70
2017-11-23T03:54:03.721Z,8.90
2017-11-23T03:56:31.263Z,8.90
2017-11-23T03:58:58.793Z,9.20
2017-11-23T04:01:26.350Z,9.30
2017-11-23T04:03:53.906Z,9.20
2017-11-23T04:06:21.415Z,9.10
2017-11-23T04:08:48.952Z,9.10
2017-11-23T04:11:16.488Z,9.10
2017-11-23T04:13:44.041Z,9.30
2017-11-23T04:16:11.556Z,9.20
2017-11-23T04:18:39.287Z,9.20
2017-11-23T04:21:07.339Z,9.40
2017-11-23T04:23:34.858Z,9.40
2017-11-23T04:26:02.376Z,9.70
2017-11-23T04:28:29.923Z,9.50
2017-11-23T04:30:57.485Z,9.40
2017-11-23T04:33:25.025Z,9.50
2017-11-23T04:35:52.537Z,9.40
2017-11-23T04:38:20.161Z,9.40
2017-11-23T04:40:47.667Z,9.30
2017-11-23T04:43:15.204Z,9.10
2017-11-23T04:45:42.711Z,9.20
2017-11-23T04:48:10.308Z,9.20
2017-11-23T04:50:37.815Z,9.10
2017-11-23T04:53:05.324Z,9.00
2017-11-23T04:55:32.869Z,9.10
2017-11-23T04:58:02.411Z,9.10
2017-11-23T05:00:29.928Z,9.10
2017-11-23T05:02:58.229Z,9.20
2017-11-23T05:05:25.801Z,9.20
2017-11-23T05:07:53.305Z,9.20
2017-11-23T05:10:20.831Z,9.10
2017-11-23T05:12:48.351Z,9.20
2017-11-23T05:15:16.644Z,9.30
2017-11-23T05:17:44.155Z,9.20
2017-11-23T05:20:11.763Z,9.30
2017-11-23T05:22:39.275Z,9.30
2017-11-23T05:25:06.804Z,9.10
2017-11-23T05:27:34.357Z,9.10
2017-11-23T05:30:01.876Z,9.00
2017-11-23T05:32:30.188Z,9.10
2017-11-23T05:34:57.717Z,9.10
2017-11-23T05:37:25.998Z,9.10
2017-11-23T05:39:54.418Z,9.10
2017-11-23T05:42:21.932Z,9.10
2017-11-23T05:44:49.524Z,9.10
2017-11-23T05:47:17.049Z,9.00
2017-11-23T05:49:45.364Z,9.00
2017-11-23T05:52:12.891Z,9.00
2017-11-23T05:54:41.195Z,9.10
2017-11-23T05:57:08.718Z,9.10
2017-11-23T05:59:36.325Z,9.00
2017-11-23T06:02:03.852Z,9.00
2017-11-23T06:04:31.381Z,9.00
2017-11-23T06:06:59.008Z,9.00
2017-11-23T06:09:26.522Z,8.90
2017-11-23T06:11:54.137Z,8.90
2017-11-23T06:14:21.643Z,8.90
2017-11-23T06:16:49.259Z,8.90
2017-11-23T06:19:16.812Z,8.80
2017-11-23T06:21:44.335Z,8.60
2017-11-23T06:24:11.846Z,8.60
2017-11-23T06:26:39.392Z,8.40
2017-11-23T06:29:06.999Z,8.50
2017-11-23T06:31:34.611Z,8.60
2017-11-23T06:34:02.182Z,8.80
2017-11-23T06:36:29.723Z,8.80
2017-11-23T06:38:57.245Z,9.00
2017-11-23T06:41:24.870Z,9.00
2017-11-23T06:43:52.414Z,8.90
2017-11-23T06:46:20.708Z,8.90
2017-11-23T06:48:48.265Z,8.80
2017-11-23T06:51:15.780Z,8.90
2017-11-23T06:53:43.376Z,8.90
2017-11-23T06:56:10.888Z,9.00
2017-11-23T06:58:39.932Z,8.80
2017-11-23T07:01:07.451Z,8.80
2017-11-23T07:03:35.468Z,8.80
2017-11-23T07:06:02.987Z,8.80
2017-11-23T07:08:30.598Z,8.90
2017-11-23T07:10:58.116Z,9.00
2017-11-23T07:13:26.431Z,9.50
2017-11-23T07:15:53.944Z,9.50
2017-11-23T07:18:21.477Z,9.60
2017-11-23T07:20:48.985Z,9.50
2017-11-23T07:23:17.276Z,9.50
2017-11-23T07:25:44.791Z,9.50
2017-11-23T07:28:18.016Z,9.60
2017-11-23T07:30:46.321Z,9.80
2017-11-23T07:33:13.865Z,9.80
2017-11-23T07:35:42.154Z,10.10
2017-11-23T07:38:09.696Z,10.10
2017-11-23T07:40:37.994Z,10.10
2017-11-23T07:43:05.511Z,10.10
2017-11-23T07:45:33.131Z,10.20
2017-11-23T07:48:00.659Z,10.20
2017-11-23T07:50:28.954Z,10.30
2017-11-23T07:52:56.476Z,10.30
2017-11-23T07:55:24.047Z,10.20
2017-11-23T07:57:52.349Z,10.30
2017-11-23T08:00:19.917Z,10.30
2017-11-23T08:02:47.452Z,10.40
2017-11-23T08:05:15.749Z,10.40
2017-11-23T08:07:43.285Z,10.40
2017-11-23T08:10:11.684Z,10.70
2017-11-23T08:12:39.221Z,10.70
2017-11-23T08:15:07.528Z,10.60
2017-11-23T08:17:35.086Z,10.60
2017-11-23T08:20:02.615Z,10.70
2017-11-23T08:22:30.145Z,10.80
2017-11-23T08:24:57.677Z,10.90
2017-11-23T08:27:25.197Z,11.00
2017-11-23T08:29:53.495Z,11.20
2017-11-23T08:32:21.776Z,11.20
2017-11-23T08:34:49.301Z,11.20
2017-11-23T08:37:16.827Z,11.20
2017-11-23T08:39:44.454Z,11.20
2017-11-23T08:42:12.028Z,11.20
2017-11-23T08:44:39.592Z,11.20
2017-11-23T08:47:07.144Z,11.10
2017-11-23T08:49:34.690Z,11.30
2017-11-23T08:52:02.269Z,11.40
2017-11-23T08:54:35.445Z,11.60
2017-11-23T08:57:03.725Z,11.80
2017-11-23T08:59:32.027Z,11.90
2017-11-23T09:01:59.557Z,11.90
2017-11-23T09:04:27.859Z,11.90
2017-11-23T09:06:55.390Z,11.90
2017-11-23T09:09:23.689Z,11.80
2017-11-23T09:11:51.207Z,11.80
2017-11-23T09:14:18.811Z,11.70
2017-11-23T09:16:46.375Z,11.70
2017-11-23T09:19:13.900Z,11.60
2017-11-23T09:21:41.416Z,11.60
2017-11-23T09:24:08.956Z,11.60
2017-11-23T09:26:36.524Z,11.60
2017-11-23T09:29:04.057Z,11.60
2017-11-23T09:31:32.353Z,11.50
2017-11-23T09:33:59.923Z,11.50
2017-11-23T09:36:27.487Z,11.70
2017-11-23T09:38:55.024Z,11.70
2017-11-23T09:41:23.330Z,11.70
2017-11-23T09:43:50.877Z,11.70
2017-11-23T09:46:18.444Z,11.80
2017-11-23T09:48:45.952Z,11.90
2017-11-23T09:51:14.995Z,12.00
2017-11-23T09:53:42.504Z,12.00
2017-11-23T09:56:10.113Z,12.20
2017-11-23T09:58:37.627Z,12.30
2017-11-23T10:01:05.233Z,12.30
2017-11-23T10:03:32.796Z,12.40
2017-11-23T10:06:00.319Z,12.50
2017-11-23T10:08:27.832Z,12.60
2017-11-23T10:10:55.380Z,13.10
2017-11-23T10:13:22.895Z,13.40
2017-11-23T10:15:50.518Z,13.60
2017-11-23T10:18:18.071Z,13.70
2017-11-23T10:20:45.604Z,13.90
2017-11-23T10:23:13.912Z,14.00
2017-11-23T10:25:41.444Z,14.00
2017-11-23T10:28:09.745Z,14.00
2017-11-23T10:30:37.396Z,14.00
2017-11-23T10:33:04.959Z,14.10
2017-11-23T10:35:32.520Z,14.20
2017-11-23T10:38:00.038Z,14.30
2017-11-23T10:40:27.745Z,14.40
2017-11-23T10:42:55.257Z,14.30
2017-11-23T10:45:22.787Z,14.40
2017-11-23T10:47:53.140Z,14.40
2017-11-23T10:50:20.673Z,14.30
2017-11-23T10:52:48.187Z,13.90
2017-11-23T10:55:16.497Z,13.60
2017-11-23T10:57:44.006Z,13.60
2017-11-23T11:00:11.609Z,13.50
2017-11-23T11:02:39.172Z,13.50
2017-11-23T11:05:06.697Z,13.60
2017-11-23T11:07:34.223Z,13.50
2017-11-23T11:10:01.732Z,13.30
2017-11-23T11:12:30.063Z,13.20
2017-11-23T11:14:57.583Z,13.20
2017-11-23T11:17:25.116Z,13.20
2017-11-23T11:19:53.416Z,13.20
2017-11-23T11:22:20.936Z,13.20
2017-11-23T11:24:48.460Z,13.40
2017-11-23T11:27:15.964Z,13.60
2017-11-23T11:29:43.486Z,13.70
2017-11-23T11:32:10.988Z,13.40
2017-11-23T11:34:38.508Z,13.60
2017-11-23T11:37:06.034Z,13.70
2017-11-23T11:39:34.319Z,13.80
2017-11-23T11:42:01.835Z,13.80
2017-11-23T11:44:29.366Z,13.80
2017-11-23T11:46:56.871Z,13.90
2017-11-23T11:49:24.401Z,13.90
2017-11-23T11:51:51.908Z,14.20
2017-11-23T11:54:20.203Z,14.00
2017-11-23T11:56:47.756Z,14.00
2017-11-23T11:59:16.147Z,14.00
2017-11-23T12:01:43.683Z,13.90
2017-11-23T12:04:11.971Z,13.90
2017-11-23T12:06:40.267Z,14.00
2017-11-23T12:09:07.821Z,13.90
2017-11-23T12:11:35.384Z,13.80
2017-11-23T12:14:15.044Z,13.80
2017-11-23T12:16:54.448Z,13.80
2017-11-23T12:19:22.748Z,13.90
2017-11-23T12:21:54.073Z,13.90
2017-11-23T12:24:31.644Z,13.90
2017-11-23T12:26:59.160Z,13.90
2017-11-23T12:29:38.697Z,13.80
2017-11-23T12:32:06.251Z,13.80
2017-11-23T12:34:33.811Z,13.90
2017-11-23T12:37:01.328Z,14.00
2017-11-23T12:39:28.927Z,14.00
2017-11-23T12:41:56.491Z,14.20
2017-11-23T12:44:24.011Z,14.00
2017-11-23T12:46:51.613Z,14.10
2017-11-23T12:49:19.153Z,14.00
2017-11-23T12:51:47.448Z,14.10
2017-11-23T12:54:15.099Z,14.10
2017-11-23T12:56:43.387Z,14.20
2017-11-23T12:59:10.994Z,14.20
2017-11-23T13:01:38.615Z,14.20
2017-11-23T13:04:06.139Z,14.00
2017-11-23T13:06:33.734Z,14.00
2017-11-23T13:09:01.254Z,13.90
2017-11-23T13:11:28.863Z,13.90
2017-11-23T13:13:56.424Z,13.90
2017-11-23T13:16:23.981Z,13.80
2017-11-23T13:18:51.516Z,13.80
2017-11-23T13:21:19.819Z,13.60
2017-11-23T13:23:47.344Z,13.60
2017-11-23T13:26:15.646Z,13.80
2017-11-23T13:28:43.932Z,13.80
2017-11-23T13:31:12.291Z,13.80
2017-11-23T13:33:40.609Z,13.90
2017-11-23T13:36:08.124Z,13.90
2017-11-23T13:38:36.413Z,13.80
2017-11-23T13:41:04.807Z,14.00
2017-11-23T13:43:32.376Z,13.90
2017-11-23T13:45:59.915Z,14.00
2017-11-23T13:48:28.188Z,14.10
2017-11-23T13:50:56.583Z,14.10
2017-11-23T13:53:24.170Z,14.10
2017-11-23T13:55:51.700Z,14.00
2017-11-23T13:58:19.968Z,14.20
2017-11-23T14:00:49.191Z,14.20
2017-11-23T14:03:16.709Z,14.20
2017-11-23T14:05:44.324Z,14.20
2017-11-23T14:08:11.840Z,14.20
2017-11-23T14:10:40.135Z,14.20
2017-11-23T14:13:08.416Z,14.30
2017-11-23T14:15:35.983Z,14.30
2017-11-23T14:18:03.511Z,14.30
2017-11-23T14:20:31.811Z,14.20
2017-11-23T14:23:00.104Z,14.30
2017-11-23T14:25:27.660Z,14.30
2017-11-23T14:27:55.941Z,14.00
2017-11-23T14:30:23.506Z,14.00
2017-11-23T14:32:51.011Z,14.10
2017-11-23T14:35:18.553Z,14.20
2017-11-23T14:37:46.088Z,14.20
2017-11-23T14:40:13.656Z,14.10
2017-11-23T14:42:41.235Z,14.00
2017-11-23T14:45:08.768Z,14.00
2017-11-23T14:47:36.285Z,13.90
2017-11-23T14:50:05.415Z,14.10
2017-11-23T14:52:32.984Z,14.10
2017-11-23T14:55:00.543Z,14.00
2017-11-23T14:57:28.105Z,14.00
2017-11-23T14:59:55.621Z,14.00
2017-11-23T15:02:24.723Z,14.10
2017-11-23T15:04:53.019Z,14.10
2017-11-23T15:07:21.321Z,14.00
2017-11-23T15:09:48.891Z,14.00
2017-11-23T15:12:16.424Z,14.00
2017-11-23T15:14:43.950Z,13.90
2017-11-23T15:17:11.468Z,14.00
2017-11-23T15:19:38.972Z,13.90
2017-11-23T15:22:06.589Z,14.00
2017-11-23T15:24:34.959Z,14.00
2017-11-23T15:27:02.490Z,14.00
2017-11-23T15:29:30.015Z,14.00
2017-11-23T15:31:57.537Z,14.10
2017-11-23T15:34:25.107Z,14.00
2017-11-23T15:36:52.639Z,14.00
2017-11-23T15:39:20.967Z,14.00
2017-11-23T15:41:48.518Z,14.00
2017-11-23T15:44:16.068Z,14.00
2017-11-23T15:46:43.604Z,13.90
2017-11-23T15:49:11.901Z,13.90
2017-11-23T15:51:39.471Z,13.90
2017-11-23T15:54:06.991Z,13.90
2017-11-23T15:56:34.521Z,13.90
2017-11-23T15:59:02.027Z,13.90
2017-11-23T16:01:30.315Z,14.00
2017-11-23T16:03:57.883Z,14.00
2017-11-23T16:06:25.445Z,13.90
2017-11-23T16:08:52.976Z,13.90
2017-11-23T16:11:21.271Z,13.80
2017-11-23T16:13:49.566Z,13.70
2017-11-23T16:16:17.115Z,13.70
2017-11-23T16:18:44.635Z,13.70
2017-11-23T16:21:12.909Z,13.70
2017-11-23T16:23:40.432Z,13.60
2017-11-23T16:26:07.974Z,13.60
2017-11-23T16:28:35.514Z,13.60
2017-11-23T16:31:03.798Z,13.60
2017-11-23T16:33:32.098Z,13.50
2017-11-23T16:35:59.604Z,13.50
2017-11-23T16:38:46.845Z,13.60
2017-11-23T16:41:14.809Z,13.50
2017-11-23T16:43:49.542Z,13.50
2017-11-23T16:46:23.412Z,13.50
2017-11-23T16:49:03.601Z,13.50
2017-11-23T17:05:24.230Z,13.30
2017-11-23T17:21:28.239Z,13.20
2017-11-23T17:23:55.769Z,13.10
2017-11-23T17:26:23.285Z,12.90
2017-11-23T17:28:50.832Z,12.90
2017-11-23T17:31:18.402Z,12.90
2017-11-23T17:33:45.957Z,13.00
2017-11-23T17:36:13.525Z,13.00
2017-11-23T17:38:41.086Z,12.90
2017-11-23T17:41:08.618Z,12.70
2017-11-23T17:43:37.004Z,12.40
2017-11-23T17:46:05.356Z,12.10
2017-11-23T17:48:32.957Z,12.10
2017-11-23T17:51:00.495Z,12.00
2017-11-23T17:53:28.784Z,11.70
2017-11-23T17:55:56.339Z,11.60
2017-11-23T17:58:24.643Z,11.70
2017-11-23T18:00:52.210Z,11.70
2017-11-23T18:03:19.767Z,11.60
2017-11-23T18:05:47.312Z,11.60
2017-11-23T18:08:14.849Z,11.70
2017-11-23T18:10:43.298Z,11.60
2017-11-23T18:13:10.833Z,11.50
2017-11-23T18:15:38.373Z,11.50
2017-11-23T18:18:05.897Z,11.30
2017-11-23T18:20:33.465Z,11.30
2017-11-23T18:23:01.029Z,11.30
2017-11-23T18:25:29.328Z,11.30
2017-11-23T18:27:57.730Z,11.30
2017-11-23T18:30:25.421Z,11.30
2017-11-23T18:32:53.057Z,11.30
2017-11-23T18:35:20.592Z,11.30
2017-11-23T18:37:48.138Z,11.20
2017-11-23T18:40:16.458Z,11.20
2017-11-23T18:42:44.031Z,11.20
2017-11-23T18:45:11.611Z,11.00
2017-11-23T18:47:39.201Z,10.90
2017-11-23T18:50:07.628Z,10.90
2017-11-23T18:52:35.823Z,10.90
2017-11-23T18:55:03.348Z,10.90
2017-11-23T18:57:30.896Z,10.90
2017-11-23T18:59:58.420Z,10.80
2017-11-23T19:02:26.029Z,10.90
2017-11-23T19:04:53.584Z,11.00
2017-11-23T19:07:21.116Z,10.90
2017-11-23T19:09:50.145Z,10.80
2017-11-23T19:12:17.740Z,10.80
2017-11-23T19:14:45.293Z,10.90
2017-11-23T19:17:12.928Z,10.90
2017-11-23T19:19:40.457Z,11.00
2017-11-23T19:22:08.861Z,11.00
2017-11-23T19:24:36.386Z,11.00
2017-11-23T19:27:04.690Z,11.00
2017-11-23T19:29:32.969Z,11.00
2017-11-23T19:32:01.274Z,10.90
2017-11-23T19:34:28.801Z,10.90
2017-11-23T19:36:57.223Z,10.70
2017-11-23T19:39:24.789Z,10.70
2017-11-23T19:41:53.142Z,10.60
2017-11-23T19:44:20.662Z,10.60
2017-11-23T19:46:48.223Z,10.70
2017-11-23T19:49:15.788Z,10.60
2017-11-23T19:51:43.322Z,10.50
2017-11-23T19:54:11.852Z,10.40
2017-11-23T19:56:39.761Z,10.40
2017-11-23T19:59:07.481Z,10.40
2017-11-23T20:01:35.876Z,10.50
2017-11-23T20:04:03.404Z,10.50
2017-11-23T20:06:31.840Z,10.40
2017-11-23T20:08:59.484Z,10.40
2017-11-23T20:11:27.004Z,10.30
2017-11-23T20:13:55.313Z,10.30
2017-11-23T20:16:22.844Z,10.30
2017-11-23T20:18:51.161Z,10.20
2017-11-23T20:21:18.733Z,10.20
2017-11-23T20:23:46.260Z,10.00
2017-11-23T20:26:13.877Z,9.90
2017-11-23T20:28:41.439Z,10.00
2017-11-23T20:31:08.971Z,9.90
2017-11-23T20:33:36.556Z,9.90
2017-11-23T20:36:04.135Z,9.90
2017-11-23T20:38:31.714Z,9.90
2017-11-23T20:41:00.028Z,10.00
2017-11-23T20:43:27.589Z,9.90
2017-11-23T20:45:55.112Z,9.90
2017-11-23T20:48:22.682Z,10.00
2017-11-23T20:50:50.977Z,9.70
2017-11-23T20:53:18.546Z,9.70
2017-11-23T20:55:46.066Z,9.70
2017-11-23T20:58:14.351Z,9.70
2017-11-23T21:00:41.878Z,9.70
2017-11-23T21:03:09.399Z,9.70
2017-11-23T21:05:37.058Z,9.70
2017-11-23T21:08:04.650Z,9.60
2017-11-23T21:10:32.177Z,9.70
2017-11-23T21:12:59.689Z,9.60
2017-11-23T21:15:27.314Z,9.60
2017-11-23T21:17:54.891Z,9.60
2017-11-23T21:20:22.477Z,9.60
2017-11-23T21:22:49.984Z,9.60
2017-11-23T21:25:17.521Z,9.60
2017-11-23T21:27:45.812Z,9.40
2017-11-23T21:30:14.097Z,9.30
2017-11-23T21:32:42.415Z,9.30
2017-11-23T21:35:09.931Z,9.30
2017-11-23T21:37:38.238Z,9.20
2017-11-23T21:40:05.805Z,9.20
2017-11-23T21:42:33.331Z,9.20
2017-11-23T21:45:01.723Z,9.20
2017-11-23T21:47:29.244Z,9.20
2017-11-23T21:49:56.772Z,9.30
2017-11-23T21:52:24.280Z,9.30
2017-11-23T21:54:52.585Z,9.10
2017-11-23T21:57:20.111Z,9.10
2017-11-23T21:59:47.718Z,9.10
2017-11-23T22:02:15.247Z,9.10
2017-11-23T22:04:43.643Z,9.10
2017-11-23T22:07:11.176Z,9.10
2017-11-23T22:09:38.712Z,9.10
2017-11-23T22:12:06.272Z,9.00
2017-11-23T22:14:33.872Z,8.90
2017-11-23T22:17:02.284Z,8.90
2017-11-23T22:19:29.789Z,8.90
2017-11-23T22:21:57.316Z,8.90
2017-11-23T22:24:24.891Z,9.00
2017-11-23T22:26:52.513Z,9.00
2017-11-23T22:29:20.033Z,9.00
2017-11-23T22:31:47.559Z,8.90
2017-11-23T22:34:15.101Z,8.80
2017-11-23T22:36:42.622Z,8.80
2017-11-23T22:39:11.001Z,8.70
2017-11-23T22:41:40.041Z,8.70
2017-11-23T22:44:07.561Z,8.70
2017-11-23T22:46:35.872Z,8.70
2017-11-23T22:49:03.468Z,8.60
2017-11-23T22:51:31.015Z,8.60
2017-11-23T22:54:00.088Z,8.70
2017-11-23T22:56:27.621Z,8.70
2017-11-23T22:58:55.928Z,8.60
2017-11-23T23:01:23.482Z,8.60
2017-11-23T23:03:51.126Z,8.60
2017-11-23T23:06:18.733Z,8.60
2017-11-23T23:08:46.372Z,8.60
2017-11-23T23:11:13.952Z,8.50
2017-11-23T23:13:41.461Z,8.40
2017-11-23T23:16:09.057Z,8.40
2017-11-23T23:18:36.609Z,8.30
2017-11-23T23:21:04.222Z,8.30
2017-11-23T23:23:31.734Z,8.30
2017-11-23T23:26:00.116Z,8.20
2017-11-23T23:28:27.683Z,8.20
2017-11-23T23:30:55.187Z,8.20
2017-11-23T23:33:22.739Z,8.10
2017-11-23T23:35:50.271Z,8.10
2017-11-23T23:38:17.837Z,8.00
2017-11-23T23:40:45.352Z,8.00
2017-11-23T23:43:13.689Z,8.00
2017-11-23T23:45:41.214Z,8.00
2017-11-23T23:48:08.742Z,7.80
2017-11-23T23:50:36.333Z,7.70
2017-11-23T23:53:03.870Z,7.70
2017-11-23T23:55:32.150Z,7.50
2017-11-23T23:58:00.456Z,7.50
